sensor_id;sensor_type;location;lat;lon;timestamp;P1;durP1;ratioP1;P2;durP2;ratioP2
22557;SDS011;11445;53.816;8.902;2022-10-31T00:00:09;54.65;;;27.27;;
22557;SDS011;11445;53.816;8.902;2022-10-31T00:02:36;56.55;;;25.10;;
22557;SDS011;11445;53.816;8.902;2022-10-31T00:05:04;58.35;;;26.48;;
22557;SDS011;11445;53.816;8.902;2022-10-31T00:07:31;55.88;;;26.65;;
22557;SDS011;11445;53.816;8.902;2022-10-31T00:09:58;52.50;;;25.25;;
22557;SDS011;11445;53.816;8.902;2022-10-31T00:12:25;46.22;;;23.88;;
22557;SDS011;11445;53.816;8.902;2022-10-31T00:14:54;59.03;;;25.83;;
22557;SDS011;11445;53.816;8.902;2022-10-31T00:17:21;53.97;;;25.83;;
22557;SDS011;11445;53.816;8.902;2022-10-31T00:19:48;58.03;;;24.90;;
22557;SDS011;11445;53.816;8.902;2022-10-31T00:22:15;53.50;;;25.73;;
22557;SDS011;11445;53.816;8.902;2022-10-31T00:24:42;57.28;;;24.92;;
22557;SDS011;11445;53.816;8.902;2022-10-31T00:27:09;45.85;;;23.95;;
22557;SDS011;11445;53.816;8.902;2022-10-31T00:29:36;48.13;;;24.00;;
22557;SDS011;11445;53.816;8.902;2022-10-31T00:32:04;57.45;;;25.45;;
22557;SDS011;11445;53.816;8.902;2022-10-31T00:34:32;51.95;;;23.58;;
22557;SDS011;11445;53.816;8.902;2022-10-31T00:36:59;49.58;;;24.90;;
22557;SDS011;11445;53.816;8.902;2022-10-31T00:39:26;50.80;;;23.08;;
22557;SDS011;11445;53.816;8.902;2022-10-31T00:41:53;53.75;;;23.13;;
22557;SDS011;11445;53.816;8.902;2022-10-31T00:44:20;56.53;;;24.60;;
22557;SDS011;11445;53.816;8.902;2022-10-31T00:46:47;56.53;;;23.35;;
22557;SDS011;11445;53.816;8.902;2022-10-31T00:49:15;47.22;;;22.20;;
22557;SDS011;11445;53.816;8.902;2022-10-31T00:51:42;48.05;;;21.13;;
22557;SDS011;11445;53.816;8.902;2022-10-31T00:54:09;51.88;;;23.05;;
22557;SDS011;11445;53.816;8.902;2022-10-31T00:56:36;54.92;;;22.80;;
22557;SDS011;11445;53.816;8.902;2022-10-31T00:59:03;57.80;;;23.52;;
22557;SDS011;11445;53.816;8.902;2022-10-31T01:01:30;53.60;;;21.95;;
22557;SDS011;11445;53.816;8.902;2022-10-31T01:03:57;55.92;;;22.40;;
22557;SDS011;11445;53.816;8.902;2022-10-31T01:06:25;63.10;;;21.33;;
22557;SDS011;11445;53.816;8.902;2022-10-31T01:08:52;45.42;;;19.13;;
22557;SDS011;11445;53.816;8.902;2022-10-31T01:11:20;49.03;;;21.08;;
22557;SDS011;11445;53.816;8.902;2022-10-31T01:13:49;43.03;;;19.48;;
22557;SDS011;11445;53.816;8.902;2022-10-31T01:16:19;47.83;;;19.83;;
22557;SDS011;11445;53.816;8.902;2022-10-31T01:18:47;51.63;;;20.45;;
22557;SDS011;11445;53.816;8.902;2022-10-31T01:21:15;53.72;;;19.17;;
22557;SDS011;11445;53.816;8.902;2022-10-31T01:23:44;47.45;;;19.50;;
22557;SDS011;11445;53.816;8.902;2022-10-31T01:26:13;42.78;;;18.75;;
22557;SDS011;11445;53.816;8.902;2022-10-31T01:28:43;39.15;;;18.63;;
22557;SDS011;11445;53.816;8.902;2022-10-31T01:31:12;42.45;;;18.27;;
22557;SDS011;11445;53.816;8.902;2022-10-31T01:33:40;41.67;;;18.38;;
22557;SDS011;11445;53.816;8.902;2022-10-31T01:36:11;43.08;;;18.60;;
22557;SDS011;11445;53.816;8.902;2022-10-31T01:38:39;50.10;;;18.73;;
22557;SDS011;11445;53.816;8.902;2022-10-31T01:41:08;40.25;;;17.45;;
22557;SDS011;11445;53.816;8.902;2022-10-31T01:43:47;37.42;;;16.60;;
22557;SDS011;11445;53.816;8.902;2022-10-31T01:46:16;41.28;;;16.83;;
22557;SDS011;11445;53.816;8.902;2022-10-31T01:48:47;41.88;;;17.75;;
22557;SDS011;11445;53.816;8.902;2022-10-31T01:51:15;43.92;;;17.45;;
22557;SDS011;11445;53.816;8.902;2022-10-31T01:53:46;41.53;;;17.90;;
22557;SDS011;11445;53.816;8.902;2022-10-31T01:56:15;39.08;;;16.83;;
22557;SDS011;11445;53.816;8.902;2022-10-31T01:58:44;44.65;;;18.60;;
22557;SDS011;11445;53.816;8.902;2022-10-31T02:01:13;39.03;;;17.60;;
22557;SDS011;11445;53.816;8.902;2022-10-31T02:03:42;46.42;;;18.10;;
22557;SDS011;11445;53.816;8.902;2022-10-31T02:06:13;40.78;;;17.05;;
22557;SDS011;11445;53.816;8.902;2022-10-31T02:08:49;45.75;;;18.77;;
22557;SDS011;11445;53.816;8.902;2022-10-31T02:11:19;33.13;;;19.13;;
22557;SDS011;11445;53.816;8.902;2022-10-31T02:13:46;45.58;;;19.40;;
22557;SDS011;11445;53.816;8.902;2022-10-31T02:16:14;51.47;;;20.83;;
22557;SDS011;11445;53.816;8.902;2022-10-31T02:18:41;51.33;;;21.50;;
22557;SDS011;11445;53.816;8.902;2022-10-31T02:21:11;47.45;;;20.58;;
22557;SDS011;11445;53.816;8.902;2022-10-31T02:32:36;58.40;;;22.05;;
22557;SDS011;11445;53.816;8.902;2022-10-31T02:35:13;50.70;;;22.70;;
22557;SDS011;11445;53.816;8.902;2022-10-31T02:37:49;62.33;;;23.27;;
22557;SDS011;11445;53.816;8.902;2022-10-31T02:40:25;43.78;;;21.77;;
22557;SDS011;11445;53.816;8.902;2022-10-31T02:42:56;50.75;;;23.38;;
22557;SDS011;11445;53.816;8.902;2022-10-31T02:45:32;60.17;;;22.75;;
22557;SDS011;11445;53.816;8.902;2022-10-31T02:48:07;56.03;;;23.92;;
22557;SDS011;11445;53.816;8.902;2022-10-31T02:50:37;52.08;;;23.20;;
22557;SDS011;11445;53.816;8.902;2022-10-31T02:53:08;55.88;;;23.67;;
22557;SDS011;11445;53.816;8.902;2022-10-31T02:55:46;56.97;;;23.13;;
22557;SDS011;11445;53.816;8.902;2022-10-31T02:58:21;57.45;;;23.33;;
22557;SDS011;11445;53.816;8.902;2022-10-31T03:03:50;53.00;;;24.17;;
22557;SDS011;11445;53.816;8.902;2022-10-31T03:06:30;57.33;;;22.55;;
22557;SDS011;11445;53.816;8.902;2022-10-31T03:09:03;47.58;;;21.55;;
22557;SDS011;11445;53.816;8.902;2022-10-31T03:11:41;59.25;;;23.33;;
22557;SDS011;11445;53.816;8.902;2022-10-31T03:14:12;63.55;;;22.35;;
22557;SDS011;11445;53.816;8.902;2022-10-31T03:16:46;69.60;;;24.25;;
22557;SDS011;11445;53.816;8.902;2022-10-31T03:19:17;68.97;;;24.10;;
22557;SDS011;11445;53.816;8.902;2022-10-31T03:21:51;81.07;;;24.15;;
22557;SDS011;11445;53.816;8.902;2022-10-31T03:24:22;59.70;;;22.27;;
22557;SDS011;11445;53.816;8.902;2022-10-31T03:26:56;74.97;;;24.85;;
22557;SDS011;11445;53.816;8.902;2022-10-31T03:29:26;66.07;;;23.45;;
22557;SDS011;11445;53.816;8.902;2022-10-31T03:31:56;63.13;;;22.67;;
22557;SDS011;11445;53.816;8.902;2022-10-31T03:34:28;76.47;;;23.13;;
22557;SDS011;11445;53.816;8.902;2022-10-31T03:36:57;64.60;;;22.05;;
22557;SDS011;11445;53.816;8.902;2022-10-31T03:39:27;66.63;;;21.77;;
22557;SDS011;11445;53.816;8.902;2022-10-31T03:41:57;63.67;;;20.95;;
22557;SDS011;11445;53.816;8.902;2022-10-31T03:44:31;61.85;;;21.80;;
22557;SDS011;11445;53.816;8.902;2022-10-31T03:46:59;77.15;;;23.38;;
22557;SDS011;11445;53.816;8.902;2022-10-31T03:49:29;84.15;;;22.88;;
22557;SDS011;11445;53.816;8.902;2022-10-31T03:51:57;64.57;;;21.25;;
22557;SDS011;11445;53.816;8.902;2022-10-31T03:54:30;70.90;;;23.63;;
22557;SDS011;11445;53.816;8.902;2022-10-31T03:57:05;53.85;;;21.25;;
22557;SDS011;11445;53.816;8.902;2022-10-31T03:59:40;54.28;;;21.38;;
22557;SDS011;11445;53.816;8.902;2022-10-31T04:02:10;53.55;;;19.08;;
22557;SDS011;11445;53.816;8.902;2022-10-31T04:04:42;62.08;;;20.15;;
22557;SDS011;11445;53.816;8.902;2022-10-31T04:07:11;52.45;;;19.20;;
22557;SDS011;11445;53.816;8.902;2022-10-31T04:09:40;60.72;;;20.08;;
22557;SDS011;11445;53.816;8.902;2022-10-31T04:12:10;47.13;;;19.02;;
22557;SDS011;11445;53.816;8.902;2022-10-31T04:14:41;40.88;;;18.77;;
22557;SDS011;11445;53.816;8.902;2022-10-31T04:17:12;47.92;;;18.65;;
22557;SDS011;11445;53.816;8.902;2022-10-31T04:19:42;44.38;;;16.63;;
22557;SDS011;11445;53.816;8.902;2022-10-31T04:22:09;35.78;;;16.42;;
22557;SDS011;11445;53.816;8.902;2022-10-31T04:24:37;49.30;;;17.30;;
22557;SDS011;11445;53.816;8.902;2022-10-31T04:27:06;51.78;;;17.88;;
22557;SDS011;11445;53.816;8.902;2022-10-31T04:29:33;52.92;;;17.23;;
22557;SDS011;11445;53.816;8.902;2022-10-31T04:32:00;51.38;;;18.90;;
22557;SDS011;11445;53.816;8.902;2022-10-31T04:34:27;40.78;;;17.13;;
22557;SDS011;11445;53.816;8.902;2022-10-31T04:36:56;51.58;;;17.63;;
22557;SDS011;11445;53.816;8.902;2022-10-31T04:39:23;48.72;;;17.10;;
22557;SDS011;11445;53.816;8.902;2022-10-31T04:41:50;44.63;;;17.23;;
22557;SDS011;11445;53.816;8.902;2022-10-31T04:44:17;54.08;;;17.73;;
22557;SDS011;11445;53.816;8.902;2022-10-31T04:46:44;50.83;;;17.27;;
22557;SDS011;11445;53.816;8.902;2022-10-31T04:49:11;49.67;;;18.60;;
22557;SDS011;11445;53.816;8.902;2022-10-31T04:51:38;46.17;;;17.35;;
22557;SDS011;11445;53.816;8.902;2022-10-31T04:54:06;49.38;;;17.48;;
22557;SDS011;11445;53.816;8.902;2022-10-31T04:56:33;42.83;;;18.58;;
22557;SDS011;11445;53.816;8.902;2022-10-31T04:59:00;43.47;;;18.02;;
22557;SDS011;11445;53.816;8.902;2022-10-31T05:01:28;37.97;;;16.27;;
22557;SDS011;11445;53.816;8.902;2022-10-31T05:03:55;43.80;;;17.33;;
22557;SDS011;11445;53.816;8.902;2022-10-31T05:06:22;48.10;;;18.42;;
22557;SDS011;11445;53.816;8.902;2022-10-31T05:08:49;49.65;;;17.85;;
22557;SDS011;11445;53.816;8.902;2022-10-31T05:11:17;43.67;;;18.15;;
22557;SDS011;11445;53.816;8.902;2022-10-31T05:13:44;39.45;;;16.60;;
22557;SDS011;11445;53.816;8.902;2022-10-31T05:16:11;42.67;;;16.63;;
22557;SDS011;11445;53.816;8.902;2022-10-31T05:18:38;41.38;;;16.83;;
22557;SDS011;11445;53.816;8.902;2022-10-31T05:21:05;46.83;;;17.45;;
22557;SDS011;11445;53.816;8.902;2022-10-31T05:23:32;55.53;;;17.27;;
22557;SDS011;11445;53.816;8.902;2022-10-31T05:25:59;62.38;;;16.95;;
22557;SDS011;11445;53.816;8.902;2022-10-31T05:28:28;56.67;;;15.43;;
22557;SDS011;11445;53.816;8.902;2022-10-31T05:30:55;83.10;;;16.45;;
22557;SDS011;11445;53.816;8.902;2022-10-31T05:33:22;96.03;;;16.17;;
22557;SDS011;11445;53.816;8.902;2022-10-31T05:35:49;39.90;;;14.98;;
22557;SDS011;11445;53.816;8.902;2022-10-31T05:38:16;76.30;;;14.48;;
22557;SDS011;11445;53.816;8.902;2022-10-31T05:40:43;75.95;;;14.82;;
22557;SDS011;11445;53.816;8.902;2022-10-31T05:43:10;74.60;;;15.52;;
22557;SDS011;11445;53.816;8.902;2022-10-31T05:45:38;68.38;;;13.68;;
22557;SDS011;11445;53.816;8.902;2022-10-31T05:48:05;66.50;;;13.38;;
22557;SDS011;11445;53.816;8.902;2022-10-31T05:50:32;47.03;;;12.52;;
22557;SDS011;11445;53.816;8.902;2022-10-31T05:53:00;72.30;;;12.85;;
22557;SDS011;11445;53.816;8.902;2022-10-31T05:55:31;88.13;;;12.88;;
22557;SDS011;11445;53.816;8.902;2022-10-31T05:57:58;74.30;;;13.18;;
22557;SDS011;11445;53.816;8.902;2022-10-31T06:00:26;32.28;;;12.48;;
22557;SDS011;11445;53.816;8.902;2022-10-31T06:02:58;69.88;;;14.40;;
22557;SDS011;11445;53.816;8.902;2022-10-31T06:05:26;41.95;;;12.68;;
22557;SDS011;11445;53.816;8.902;2022-10-31T06:07:53;70.88;;;13.65;;
22557;SDS011;11445;53.816;8.902;2022-10-31T06:10:20;50.42;;;13.15;;
22557;SDS011;11445;53.816;8.902;2022-10-31T06:12:47;62.10;;;12.75;;
22557;SDS011;11445;53.816;8.902;2022-10-31T06:15:15;81.63;;;13.82;;
22557;SDS011;11445;53.816;8.902;2022-10-31T06:17:43;56.67;;;12.40;;
22557;SDS011;11445;53.816;8.902;2022-10-31T06:20:11;63.97;;;12.48;;
22557;SDS011;11445;53.816;8.902;2022-10-31T06:22:38;56.17;;;13.43;;
22557;SDS011;11445;53.816;8.902;2022-10-31T06:25:06;45.33;;;12.88;;
22557;SDS011;11445;53.816;8.902;2022-10-31T06:27:33;60.33;;;12.43;;
22557;SDS011;11445;53.816;8.902;2022-10-31T06:30:00;55.05;;;12.88;;
22557;SDS011;11445;53.816;8.902;2022-10-31T06:32:27;26.23;;;12.65;;
22557;SDS011;11445;53.816;8.902;2022-10-31T06:34:54;45.70;;;13.48;;
22557;SDS011;11445;53.816;8.902;2022-10-31T06:37:23;40.92;;;12.90;;
22557;SDS011;11445;53.816;8.902;2022-10-31T06:39:50;32.47;;;12.38;;
22557;SDS011;11445;53.816;8.902;2022-10-31T06:42:17;53.00;;;12.55;;
22557;SDS011;11445;53.816;8.902;2022-10-31T06:44:44;34.30;;;11.73;;
22557;SDS011;11445;53.816;8.902;2022-10-31T06:47:11;45.13;;;12.65;;
22557;SDS011;11445;53.816;8.902;2022-10-31T06:49:38;62.83;;;11.68;;
22557;SDS011;11445;53.816;8.902;2022-10-31T06:52:05;58.28;;;11.75;;
22557;SDS011;11445;53.816;8.902;2022-10-31T06:54:33;80.90;;;10.85;;
22557;SDS011;11445;53.816;8.902;2022-10-31T06:57:01;50.03;;;10.82;;
22557;SDS011;11445;53.816;8.902;2022-10-31T06:59:28;51.35;;;11.32;;
22557;SDS011;11445;53.816;8.902;2022-10-31T07:01:55;74.65;;;12.15;;
22557;SDS011;11445;53.816;8.902;2022-10-31T07:04:23;62.25;;;11.30;;
22557;SDS011;11445;53.816;8.902;2022-10-31T07:06:50;55.75;;;11.48;;
22557;SDS011;11445;53.816;8.902;2022-10-31T07:09:18;46.83;;;12.55;;
22557;SDS011;11445;53.816;8.902;2022-10-31T07:11:46;42.58;;;11.68;;
22557;SDS011;11445;53.816;8.902;2022-10-31T07:14:13;63.65;;;12.60;;
22557;SDS011;11445;53.816;8.902;2022-10-31T07:16:40;76.30;;;13.10;;
22557;SDS011;11445;53.816;8.902;2022-10-31T07:19:07;74.45;;;13.63;;
22557;SDS011;11445;53.816;8.902;2022-10-31T07:21:34;65.95;;;13.63;;
22557;SDS011;11445;53.816;8.902;2022-10-31T07:24:01;76.18;;;13.25;;
22557;SDS011;11445;53.816;8.902;2022-10-31T07:26:29;78.47;;;13.32;;
22557;SDS011;11445;53.816;8.902;2022-10-31T07:28:57;87.88;;;14.70;;
22557;SDS011;11445;53.816;8.902;2022-10-31T07:31:25;89.00;;;15.65;;
22557;SDS011;11445;53.816;8.902;2022-10-31T07:33:52;54.63;;;13.70;;
22557;SDS011;11445;53.816;8.902;2022-10-31T07:36:19;38.45;;;12.85;;
22557;SDS011;11445;53.816;8.902;2022-10-31T07:38:46;43.00;;;14.60;;
22557;SDS011;11445;53.816;8.902;2022-10-31T07:41:13;87.13;;;14.10;;
22557;SDS011;11445;53.816;8.902;2022-10-31T07:43:40;85.25;;;14.40;;
22557;SDS011;11445;53.816;8.902;2022-10-31T07:46:08;72.53;;;13.95;;
22557;SDS011;11445;53.816;8.902;2022-10-31T07:48:36;59.75;;;13.13;;
22557;SDS011;11445;53.816;8.902;2022-10-31T07:51:03;82.15;;;14.45;;
22557;SDS011;11445;53.816;8.902;2022-10-31T07:53:32;39.05;;;12.75;;
22557;SDS011;11445;53.816;8.902;2022-10-31T07:55:59;62.78;;;14.30;;
22557;SDS011;11445;53.816;8.902;2022-10-31T07:58:26;44.08;;;14.32;;
22557;SDS011;11445;53.816;8.902;2022-10-31T08:00:53;31.98;;;13.65;;
22557;SDS011;11445;53.816;8.902;2022-10-31T08:03:21;51.17;;;14.38;;
22557;SDS011;11445;53.816;8.902;2022-10-31T08:05:48;47.28;;;13.93;;
22557;SDS011;11445;53.816;8.902;2022-10-31T08:08:15;42.88;;;14.57;;
22557;SDS011;11445;53.816;8.902;2022-10-31T08:10:42;64.13;;;16.17;;
22557;SDS011;11445;53.816;8.902;2022-10-31T08:13:10;75.10;;;14.27;;
22557;SDS011;11445;53.816;8.902;2022-10-31T08:15:38;56.28;;;15.45;;
22557;SDS011;11445;53.816;8.902;2022-10-31T08:18:09;52.17;;;14.52;;
22557;SDS011;11445;53.816;8.902;2022-10-31T08:20:40;34.97;;;13.73;;
22557;SDS011;11445;53.816;8.902;2022-10-31T08:23:08;59.80;;;15.18;;
22557;SDS011;11445;53.816;8.902;2022-10-31T08:25:36;87.63;;;14.85;;
22557;SDS011;11445;53.816;8.902;2022-10-31T08:28:04;74.93;;;14.13;;
22557;SDS011;11445;53.816;8.902;2022-10-31T08:30:32;76.65;;;14.80;;
22557;SDS011;11445;53.816;8.902;2022-10-31T08:33:01;90.25;;;15.85;;
22557;SDS011;11445;53.816;8.902;2022-10-31T08:35:29;66.10;;;15.02;;
22557;SDS011;11445;53.816;8.902;2022-10-31T08:37:58;76.70;;;15.63;;
22557;SDS011;11445;53.816;8.902;2022-10-31T08:40:26;114.32;;;15.60;;
22557;SDS011;11445;53.816;8.902;2022-10-31T08:43:00;104.93;;;16.48;;
22557;SDS011;11445;53.816;8.902;2022-10-31T08:45:29;139.05;;;16.90;;
22557;SDS011;11445;53.816;8.902;2022-10-31T08:47:57;90.65;;;15.80;;
22557;SDS011;11445;53.816;8.902;2022-10-31T08:50:25;102.90;;;16.67;;
22557;SDS011;11445;53.816;8.902;2022-10-31T08:52:53;116.97;;;16.83;;
22557;SDS011;11445;53.816;8.902;2022-10-31T08:55:26;108.43;;;15.98;;
22557;SDS011;11445;53.816;8.902;2022-10-31T08:57:54;43.78;;;16.77;;
22557;SDS011;11445;53.816;8.902;2022-10-31T09:00:22;94.38;;;16.55;;
22557;SDS011;11445;53.816;8.902;2022-10-31T09:02:54;106.63;;;17.52;;
22557;SDS011;11445;53.816;8.902;2022-10-31T09:05:22;129.57;;;18.08;;
22557;SDS011;11445;53.816;8.902;2022-10-31T09:07:49;80.18;;;15.88;;
22557;SDS011;11445;53.816;8.902;2022-10-31T09:10:16;136.05;;;18.17;;
22557;SDS011;11445;53.816;8.902;2022-10-31T09:12:44;114.20;;;17.20;;
22557;SDS011;11445;53.816;8.902;2022-10-31T09:15:11;105.22;;;16.55;;
22557;SDS011;11445;53.816;8.902;2022-10-31T09:17:38;55.78;;;14.75;;
22557;SDS011;11445;53.816;8.902;2022-10-31T09:20:12;77.68;;;16.38;;
22557;SDS011;11445;53.816;8.902;2022-10-31T09:22:39;94.20;;;17.92;;
22557;SDS011;11445;53.816;8.902;2022-10-31T09:25:06;54.80;;;15.82;;
22557;SDS011;11445;53.816;8.902;2022-10-31T09:27:34;52.25;;;15.88;;
22557;SDS011;11445;53.816;8.902;2022-10-31T09:30:02;80.53;;;20.02;;
22557;SDS011;11445;53.816;8.902;2022-10-31T09:32:30;79.05;;;18.77;;
22557;SDS011;11445;53.816;8.902;2022-10-31T09:34:57;55.25;;;20.48;;
22557;SDS011;11445;53.816;8.902;2022-10-31T09:37:24;40.45;;;19.63;;
22557;SDS011;11445;53.816;8.902;2022-10-31T09:39:51;53.70;;;17.73;;
22557;SDS011;11445;53.816;8.902;2022-10-31T09:45:17;72.50;;;17.02;;
22557;SDS011;11445;53.816;8.902;2022-10-31T09:47:52;43.95;;;14.52;;
22557;SDS011;11445;53.816;8.902;2022-10-31T09:50:31;56.63;;;17.80;;
22557;SDS011;11445;53.816;8.902;2022-10-31T09:53:16;37.67;;;17.75;;
22557;SDS011;11445;53.816;8.902;2022-10-31T09:55:50;63.85;;;18.65;;
22557;SDS011;11445;53.816;8.902;2022-10-31T09:58:19;67.82;;;21.77;;
22557;SDS011;11445;53.816;8.902;2022-10-31T10:00:51;52.08;;;21.77;;
22557;SDS011;11445;53.816;8.902;2022-10-31T10:03:22;57.85;;;21.48;;
22557;SDS011;11445;53.816;8.902;2022-10-31T10:05:57;59.28;;;22.30;;
22557;SDS011;11445;53.816;8.902;2022-10-31T10:08:30;53.88;;;23.10;;
22557;SDS011;11445;53.816;8.902;2022-10-31T10:11:00;47.80;;;22.10;;
22557;SDS011;11445;53.816;8.902;2022-10-31T10:13:51;45.97;;;22.40;;
22557;SDS011;11445;53.816;8.902;2022-10-31T10:16:38;53.90;;;23.23;;
22557;SDS011;11445;53.816;8.902;2022-10-31T10:19:18;34.60;;;20.45;;
22557;SDS011;11445;53.816;8.902;2022-10-31T10:21:56;47.78;;;23.50;;
22557;SDS011;11445;53.816;8.902;2022-10-31T10:24:38;40.78;;;22.40;;
22557;SDS011;11445;53.816;8.902;2022-10-31T10:27:20;37.90;;;22.27;;
22557;SDS011;11445;53.816;8.902;2022-10-31T10:29:58;48.92;;;24.13;;
22557;SDS011;11445;53.816;8.902;2022-10-31T10:32:30;45.25;;;24.92;;
22557;SDS011;11445;53.816;8.902;2022-10-31T10:35:07;49.08;;;25.55;;
22557;SDS011;11445;53.816;8.902;2022-10-31T10:37:41;45.95;;;23.10;;
22557;SDS011;11445;53.816;8.902;2022-10-31T10:40:11;50.38;;;24.60;;
22557;SDS011;11445;53.816;8.902;2022-10-31T10:42:43;43.25;;;23.33;;
22557;SDS011;11445;53.816;8.902;2022-10-31T10:45:34;50.80;;;24.95;;
22557;SDS011;11445;53.816;8.902;2022-10-31T10:48:23;43.13;;;22.30;;
22557;SDS011;11445;53.816;8.902;2022-10-31T10:50:57;43.35;;;23.73;;
22557;SDS011;11445;53.816;8.902;2022-10-31T10:53:28;49.33;;;23.90;;
22557;SDS011;11445;53.816;8.902;2022-10-31T10:56:26;40.90;;;22.25;;
22557;SDS011;11445;53.816;8.902;2022-10-31T10:59:03;43.63;;;20.95;;
22557;SDS011;11445;53.816;8.902;2022-10-31T11:01:30;45.88;;;21.73;;
22557;SDS011;11445;53.816;8.902;2022-10-31T11:03:58;41.17;;;21.92;;
22557;SDS011;11445;53.816;8.902;2022-10-31T11:06:28;40.20;;;21.38;;
22557;SDS011;11445;53.816;8.902;2022-10-31T11:08:55;27.48;;;14.48;;
22557;SDS011;11445;53.816;8.902;2022-10-31T11:11:23;27.00;;;15.27;;
22557;SDS011;11445;53.816;8.902;2022-10-31T11:13:54;25.30;;;12.63;;
22557;SDS011;11445;53.816;8.902;2022-10-31T11:16:29;25.77;;;11.30;;
22557;SDS011;11445;53.816;8.902;2022-10-31T11:19:08;31.08;;;15.32;;
22557;SDS011;11445;53.816;8.902;2022-10-31T11:21:41;29.70;;;16.02;;
22557;SDS011;11445;53.816;8.902;2022-10-31T11:24:12;36.10;;;17.08;;
22557;SDS011;11445;53.816;8.902;2022-10-31T11:26:44;35.97;;;17.10;;
22557;SDS011;11445;53.816;8.902;2022-10-31T11:29:16;37.03;;;17.58;;
22557;SDS011;11445;53.816;8.902;2022-10-31T11:31:46;33.33;;;17.65;;
22557;SDS011;11445;53.816;8.902;2022-10-31T11:34:21;35.78;;;18.88;;
22557;SDS011;11445;53.816;8.902;2022-10-31T11:36:54;35.50;;;16.52;;
22557;SDS011;11445;53.816;8.902;2022-10-31T11:39:23;35.67;;;17.75;;
22557;SDS011;11445;53.816;8.902;2022-10-31T11:41:51;36.65;;;17.05;;
22557;SDS011;11445;53.816;8.902;2022-10-31T11:44:20;32.97;;;16.98;;
22557;SDS011;11445;53.816;8.902;2022-10-31T11:46:50;34.17;;;17.50;;
22557;SDS011;11445;53.816;8.902;2022-10-31T11:49:20;32.05;;;16.83;;
22557;SDS011;11445;53.816;8.902;2022-10-31T11:51:55;39.70;;;17.83;;
22557;SDS011;11445;53.816;8.902;2022-10-31T11:54:25;36.85;;;17.30;;
22557;SDS011;11445;53.816;8.902;2022-10-31T11:56:55;33.15;;;18.92;;
22557;SDS011;11445;53.816;8.902;2022-10-31T11:59:25;33.72;;;14.35;;
22557;SDS011;11445;53.816;8.902;2022-10-31T12:01:54;24.35;;;13.57;;
22557;SDS011;11445;53.816;8.902;2022-10-31T12:04:27;21.00;;;13.30;;
22557;SDS011;11445;53.816;8.902;2022-10-31T12:07:00;32.65;;;14.88;;
22557;SDS011;11445;53.816;8.902;2022-10-31T12:09:28;24.55;;;13.55;;
22557;SDS011;11445;53.816;8.902;2022-10-31T12:12:00;31.15;;;11.88;;
22557;SDS011;11445;53.816;8.902;2022-10-31T12:14:56;31.33;;;15.02;;
22557;SDS011;11445;53.816;8.902;2022-10-31T12:17:35;24.75;;;12.13;;
22557;SDS011;11445;53.816;8.902;2022-10-31T12:20:11;20.13;;;11.68;;
22557;SDS011;11445;53.816;8.902;2022-10-31T12:22:48;22.90;;;11.05;;
22557;SDS011;11445;53.816;8.902;2022-10-31T12:25:28;24.23;;;12.88;;
22557;SDS011;11445;53.816;8.902;2022-10-31T12:30:58;24.08;;;12.13;;
22557;SDS011;11445;53.816;8.902;2022-10-31T12:33:40;23.55;;;11.32;;
22557;SDS011;11445;53.816;8.902;2022-10-31T12:36:24;20.27;;;11.02;;
22557;SDS011;11445;53.816;8.902;2022-10-31T12:41:51;22.88;;;11.32;;
22557;SDS011;11445;53.816;8.902;2022-10-31T12:44:39;28.98;;;11.52;;
22557;SDS011;11445;53.816;8.902;2022-10-31T12:47:26;23.77;;;11.13;;
22557;SDS011;11445;53.816;8.902;2022-10-31T12:53:07;22.40;;;10.38;;
22557;SDS011;11445;53.816;8.902;2022-10-31T12:55:45;21.33;;;10.30;;
22557;SDS011;11445;53.816;8.902;2022-10-31T12:58:23;21.05;;;9.90;;
22557;SDS011;11445;53.816;8.902;2022-10-31T13:00:55;26.13;;;10.82;;
22557;SDS011;11445;53.816;8.902;2022-10-31T13:03:32;18.63;;;10.07;;
22557;SDS011;11445;53.816;8.902;2022-10-31T13:06:07;21.60;;;11.30;;
22557;SDS011;11445;53.816;8.902;2022-10-31T13:08:43;23.25;;;11.65;;
22557;SDS011;11445;53.816;8.902;2022-10-31T13:11:16;19.92;;;10.95;;
22557;SDS011;11445;53.816;8.902;2022-10-31T13:13:48;26.77;;;12.73;;
22557;SDS011;11445;53.816;8.902;2022-10-31T13:16:24;27.13;;;13.18;;
22557;SDS011;11445;53.816;8.902;2022-10-31T13:18:55;27.00;;;12.90;;
22557;SDS011;11445;53.816;8.902;2022-10-31T13:21:26;24.60;;;12.27;;
22557;SDS011;11445;53.816;8.902;2022-10-31T13:23:59;28.77;;;13.05;;
22557;SDS011;11445;53.816;8.902;2022-10-31T13:26:33;26.23;;;12.95;;
22557;SDS011;11445;53.816;8.902;2022-10-31T13:29:05;25.33;;;12.65;;
22557;SDS011;11445;53.816;8.902;2022-10-31T13:31:40;23.77;;;12.70;;
22557;SDS011;11445;53.816;8.902;2022-10-31T13:34:11;23.55;;;11.90;;
22557;SDS011;11445;53.816;8.902;2022-10-31T13:36:50;23.45;;;11.80;;
22557;SDS011;11445;53.816;8.902;2022-10-31T13:39:30;21.52;;;11.70;;
22557;SDS011;11445;53.816;8.902;2022-10-31T13:42:10;26.08;;;11.68;;
22557;SDS011;11445;53.816;8.902;2022-10-31T13:44:43;22.70;;;11.60;;
22557;SDS011;11445;53.816;8.902;2022-10-31T13:47:21;25.20;;;11.93;;
22557;SDS011;11445;53.816;8.902;2022-10-31T13:49:49;22.08;;;11.50;;
22557;SDS011;11445;53.816;8.902;2022-10-31T13:52:21;20.90;;;11.63;;
22557;SDS011;11445;53.816;8.902;2022-10-31T13:57:27;27.73;;;11.32;;
22557;SDS011;11445;53.816;8.902;2022-10-31T14:00:05;22.92;;;11.45;;
22557;SDS011;11445;53.816;8.902;2022-10-31T14:02:49;19.88;;;11.05;;
22557;SDS011;11445;53.816;8.902;2022-10-31T14:05:21;19.83;;;11.25;;
22557;SDS011;11445;53.816;8.902;2022-10-31T14:07:51;28.13;;;12.15;;
22557;SDS011;11445;53.816;8.902;2022-10-31T14:10:22;23.10;;;12.55;;
22557;SDS011;11445;53.816;8.902;2022-10-31T14:12:52;23.58;;;11.85;;
22557;SDS011;11445;53.816;8.902;2022-10-31T14:15:21;18.55;;;11.13;;
22557;SDS011;11445;53.816;8.902;2022-10-31T14:17:51;20.17;;;11.48;;
22557;SDS011;11445;53.816;8.902;2022-10-31T14:20:22;23.17;;;10.05;;
22557;SDS011;11445;53.816;8.902;2022-10-31T14:26:20;21.08;;;9.30;;
22557;SDS011;11445;53.816;8.902;2022-10-31T14:28:58;15.65;;;9.07;;
22557;SDS011;11445;53.816;8.902;2022-10-31T14:31:29;18.55;;;9.63;;
22557;SDS011;11445;53.816;8.902;2022-10-31T14:34:17;26.75;;;9.48;;
22557;SDS011;11445;53.816;8.902;2022-10-31T14:36:51;16.77;;;9.48;;
22557;SDS011;11445;53.816;8.902;2022-10-31T14:42:18;17.95;;;9.13;;
22557;SDS011;11445;53.816;8.902;2022-10-31T14:47:51;26.00;;;9.93;;
22557;SDS011;11445;53.816;8.902;2022-10-31T14:50:36;19.58;;;8.77;;
22557;SDS011;11445;53.816;8.902;2022-10-31T14:53:11;14.57;;;8.48;;
22557;SDS011;11445;53.816;8.902;2022-10-31T14:55:42;18.02;;;8.85;;
22557;SDS011;11445;53.816;8.902;2022-10-31T14:58:15;22.17;;;9.60;;
22557;SDS011;11445;53.816;8.902;2022-10-31T15:00:46;16.33;;;9.10;;
22557;SDS011;11445;53.816;8.902;2022-10-31T15:03:14;20.42;;;9.85;;
22557;SDS011;11445;53.816;8.902;2022-10-31T15:05:45;21.70;;;10.05;;
22557;SDS011;11445;53.816;8.902;2022-10-31T15:08:25;16.60;;;9.55;;
22557;SDS011;11445;53.816;8.902;2022-10-31T15:10:55;21.15;;;10.90;;
22557;SDS011;11445;53.816;8.902;2022-10-31T15:13:23;24.85;;;10.95;;
22557;SDS011;11445;53.816;8.902;2022-10-31T15:15:51;22.02;;;10.75;;